sensor_id;sensor_type;location;lat;lon;timestamp;P1;durP1;ratioP1;P2;durP2;ratioP2
36383;SDS011;22418;51.210;6.976;2023-06-14T00:02:13;28.08;;;6.45;;
36383;SDS011;22418;51.210;6.976;2023-06-14T00:04:45;9.80;;;5.35;;
36383;SDS011;22418;51.210;6.976;2023-06-14T00:07:18;9.20;;;5.70;;
36383;SDS011;22418;51.210;6.976;2023-06-14T00:09:48;13.53;;;5.77;;
36383;SDS011;22418;51.210;6.976;2023-06-14T00:12:19;8.03;;;6.20;;
36383;SDS011;22418;51.210;6.976;2023-06-14T00:14:49;9.40;;;6.50;;
36383;SDS011;22418;51.210;6.976;2023-06-14T00:17:20;8.70;;;6.17;;
36383;SDS011;22418;51.210;6.976;2023-06-14T00:19:51;10.52;;;5.60;;
36383;SDS011;22418;51.210;6.976;2023-06-14T00:22:22;13.50;;;6.10;;
36383;SDS011;22418;51.210;6.976;2023-06-14T00:24:58;10.07;;;6.38;;
36383;SDS011;22418;51.210;6.976;2023-06-14T00:27:29;11.40;;;5.30;;
36383;SDS011;22418;51.210;6.976;2023-06-14T00:30:00;13.07;;;6.53;;
36383;SDS011;22418;51.210;6.976;2023-06-14T00:32:31;14.10;;;5.77;;
36383;SDS011;22418;51.210;6.976;2023-06-14T00:35:01;11.10;;;5.80;;
36383;SDS011;22418;51.210;6.976;2023-06-14T00:37:32;11.13;;;6.30;;
36383;SDS011;22418;51.210;6.976;2023-06-14T00:40:03;15.33;;;5.80;;
36383;SDS011;22418;51.210;6.976;2023-06-14T00:45:05;11.10;;;6.43;;
36383;SDS011;22418;51.210;6.976;2023-06-14T00:47:35;10.68;;;6.45;;
36383;SDS011;22418;51.210;6.976;2023-06-14T00:50:08;12.32;;;5.80;;
36383;SDS011;22418;51.210;6.976;2023-06-14T00:52:39;11.38;;;5.60;;
36383;SDS011;22418;51.210;6.976;2023-06-14T00:55:10;12.07;;;6.33;;
36383;SDS011;22418;51.210;6.976;2023-06-14T00:57:41;10.50;;;5.60;;
36383;SDS011;22418;51.210;6.976;2023-06-14T01:00:11;11.53;;;6.20;;
36383;SDS011;22418;51.210;6.976;2023-06-14T01:02:42;10.30;;;6.22;;
36383;SDS011;22418;51.210;6.976;2023-06-14T01:05:13;16.03;;;5.57;;
36383;SDS011;22418;51.210;6.976;2023-06-14T01:13:33;10.18;;;6.07;;
36383;SDS011;22418;51.210;6.976;2023-06-14T01:16:06;12.05;;;5.78;;
36383;SDS011;22418;51.210;6.976;2023-06-14T01:18:38;13.90;;;5.93;;
36383;SDS011;22418;51.210;6.976;2023-06-14T01:21:21;11.70;;;6.40;;
36383;SDS011;22418;51.210;6.976;2023-06-14T01:23:55;13.82;;;6.90;;
36383;SDS011;22418;51.210;6.976;2023-06-14T01:26:26;15.17;;;6.63;;
36383;SDS011;22418;51.210;6.976;2023-06-14T01:28:59;11.60;;;6.78;;
36383;SDS011;22418;51.210;6.976;2023-06-14T01:31:29;10.50;;;6.30;;
36383;SDS011;22418;51.210;6.976;2023-06-14T01:34:11;13.32;;;6.85;;
36383;SDS011;22418;51.210;6.976;2023-06-14T01:36:42;12.00;;;7.13;;
36383;SDS011;22418;51.210;6.976;2023-06-14T01:39:15;13.80;;;7.38;;
36383;SDS011;22418;51.210;6.976;2023-06-14T01:41:47;10.27;;;6.65;;
36383;SDS011;22418;51.210;6.976;2023-06-14T01:44:19;15.75;;;6.32;;
36383;SDS011;22418;51.210;6.976;2023-06-14T01:46:50;14.45;;;6.35;;
36383;SDS011;22418;51.210;6.976;2023-06-14T01:49:21;14.03;;;7.30;;
36383;SDS011;22418;51.210;6.976;2023-06-14T01:51:52;15.60;;;7.00;;
36383;SDS011;22418;51.210;6.976;2023-06-14T01:54:22;12.63;;;6.73;;
36383;SDS011;22418;51.210;6.976;2023-06-14T01:56:55;13.35;;;6.85;;
36383;SDS011;22418;51.210;6.976;2023-06-14T01:59:26;14.75;;;7.28;;
36383;SDS011;22418;51.210;6.976;2023-06-14T02:01:57;9.53;;;6.63;;
36383;SDS011;22418;51.210;6.976;2023-06-14T02:04:28;14.43;;;7.00;;
36383;SDS011;22418;51.210;6.976;2023-06-14T02:06:58;9.13;;;6.40;;
36383;SDS011;22418;51.210;6.976;2023-06-14T02:09:29;12.70;;;6.43;;
36383;SDS011;22418;51.210;6.976;2023-06-14T02:11:59;11.60;;;7.53;;
36383;SDS011;22418;51.210;6.976;2023-06-14T02:14:30;14.87;;;7.10;;
36383;SDS011;22418;51.210;6.976;2023-06-14T02:17:00;13.10;;;6.60;;
36383;SDS011;22418;51.210;6.976;2023-06-14T02:19:31;11.48;;;6.90;;
36383;SDS011;22418;51.210;6.976;2023-06-14T02:22:03;13.32;;;6.70;;
36383;SDS011;22418;51.210;6.976;2023-06-14T02:24:33;12.77;;;6.60;;
36383;SDS011;22418;51.210;6.976;2023-06-14T02:29:36;15.07;;;7.60;;
36383;SDS011;22418;51.210;6.976;2023-06-14T02:32:07;11.33;;;7.20;;
36383;SDS011;22418;51.210;6.976;2023-06-14T02:34:37;15.75;;;6.53;;
36383;SDS011;22418;51.210;6.976;2023-06-14T02:37:11;12.57;;;6.78;;
36383;SDS011;22418;51.210;6.976;2023-06-14T02:42:14;10.13;;;6.32;;
36383;SDS011;22418;51.210;6.976;2023-06-14T02:44:44;13.93;;;7.10;;
36383;SDS011;22418;51.210;6.976;2023-06-14T02:47:17;10.57;;;7.05;;
36383;SDS011;22418;51.210;6.976;2023-06-14T02:49:48;11.10;;;6.45;;
36383;SDS011;22418;51.210;6.976;2023-06-14T02:52:18;10.53;;;6.27;;
36383;SDS011;22418;51.210;6.976;2023-06-14T02:57:21;10.10;;;6.22;;
36383;SDS011;22418;51.210;6.976;2023-06-14T02:59:53;10.35;;;5.90;;
36383;SDS011;22418;51.210;6.976;2023-06-14T03:02:24;10.20;;;6.30;;
36383;SDS011;22418;51.210;6.976;2023-06-14T03:04:54;11.60;;;6.97;;
36383;SDS011;22418;51.210;6.976;2023-06-14T03:07:25;12.68;;;6.72;;
36383;SDS011;22418;51.210;6.976;2023-06-14T03:09:57;17.40;;;6.47;;
36383;SDS011;22418;51.210;6.976;2023-06-14T03:12:28;9.77;;;6.70;;
36383;SDS011;22418;51.210;6.976;2023-06-14T03:14:58;15.80;;;6.43;;
36383;SDS011;22418;51.210;6.976;2023-06-14T03:17:34;10.63;;;5.70;;
36383;SDS011;22418;51.210;6.976;2023-06-14T03:20:08;11.48;;;5.95;;
36383;SDS011;22418;51.210;6.976;2023-06-14T03:22:39;15.40;;;5.95;;
36383;SDS011;22418;51.210;6.976;2023-06-14T03:25:10;16.73;;;6.10;;
36383;SDS011;22418;51.210;6.976;2023-06-14T03:27:41;9.00;;;5.80;;
36383;SDS011;22418;51.210;6.976;2023-06-14T03:30:12;14.77;;;6.80;;
36383;SDS011;22418;51.210;6.976;2023-06-14T03:32:42;12.05;;;6.80;;
36383;SDS011;22418;51.210;6.976;2023-06-14T03:35:13;13.03;;;6.40;;
36383;SDS011;22418;51.210;6.976;2023-06-14T03:37:49;12.27;;;6.15;;
36383;SDS011;22418;51.210;6.976;2023-06-14T03:40:20;15.13;;;7.03;;
36383;SDS011;22418;51.210;6.976;2023-06-14T03:42:51;12.88;;;5.70;;
36383;SDS011;22418;51.210;6.976;2023-06-14T03:45:23;15.20;;;5.95;;
36383;SDS011;22418;51.210;6.976;2023-06-14T03:47:53;11.10;;;6.40;;
36383;SDS011;22418;51.210;6.976;2023-06-14T03:50:24;17.08;;;6.40;;
36383;SDS011;22418;51.210;6.976;2023-06-14T03:52:55;12.57;;;5.87;;
36383;SDS011;22418;51.210;6.976;2023-06-14T03:55:25;11.60;;;5.70;;
36383;SDS011;22418;51.210;6.976;2023-06-14T03:57:57;12.82;;;5.78;;
36383;SDS011;22418;51.210;6.976;2023-06-14T04:00:28;10.07;;;5.77;;
36383;SDS011;22418;51.210;6.976;2023-06-14T04:02:58;10.00;;;5.60;;
36383;SDS011;22418;51.210;6.976;2023-06-14T04:05:29;11.33;;;5.87;;
36383;SDS011;22418;51.210;6.976;2023-06-14T04:08:00;11.73;;;6.57;;
36383;SDS011;22418;51.210;6.976;2023-06-14T04:10:30;9.97;;;5.87;;
36383;SDS011;22418;51.210;6.976;2023-06-14T04:13:02;13.95;;;6.57;;
36383;SDS011;22418;51.210;6.976;2023-06-14T04:15:32;13.07;;;6.17;;
36383;SDS011;22418;51.210;6.976;2023-06-14T04:18:03;12.77;;;5.65;;
36383;SDS011;22418;51.210;6.976;2023-06-14T04:20:34;13.27;;;6.03;;
36383;SDS011;22418;51.210;6.976;2023-06-14T04:23:14;13.73;;;5.70;;
36383;SDS011;22418;51.210;6.976;2023-06-14T04:25:47;9.52;;;5.97;;
36383;SDS011;22418;51.210;6.976;2023-06-14T04:30:49;11.27;;;5.50;;
36383;SDS011;22418;51.210;6.976;2023-06-14T04:33:20;15.10;;;5.27;;
36383;SDS011;22418;51.210;6.976;2023-06-14T04:35:51;14.20;;;5.87;;
36383;SDS011;22418;51.210;6.976;2023-06-14T04:38:23;18.48;;;5.25;;
36383;SDS011;22418;51.210;6.976;2023-06-14T04:40:55;11.63;;;5.30;;
36383;SDS011;22418;51.210;6.976;2023-06-14T04:43:26;13.15;;;5.60;;
36383;SDS011;22418;51.210;6.976;2023-06-14T04:45:57;14.57;;;5.38;;
36383;SDS011;22418;51.210;6.976;2023-06-14T04:48:28;12.10;;;5.57;;
36383;SDS011;22418;51.210;6.976;2023-06-14T04:50:58;10.70;;;5.20;;
36383;SDS011;22418;51.210;6.976;2023-06-14T04:53:29;8.33;;;5.27;;
36383;SDS011;22418;51.210;6.976;2023-06-14T04:56:01;15.77;;;5.57;;
36383;SDS011;22418;51.210;6.976;2023-06-14T04:58:32;13.80;;;4.75;;
36383;SDS011;22418;51.210;6.976;2023-06-14T05:01:03;19.37;;;5.43;;
36383;SDS011;22418;51.210;6.976;2023-06-14T05:03:34;13.37;;;5.30;;
36383;SDS011;22418;51.210;6.976;2023-06-14T05:06:04;16.53;;;5.80;;
36383;SDS011;22418;51.210;6.976;2023-06-14T05:11:06;9.97;;;5.43;;
36383;SDS011;22418;51.210;6.976;2023-06-14T05:13:37;12.93;;;5.03;;
36383;SDS011;22418;51.210;6.976;2023-06-14T05:16:07;10.27;;;4.87;;
36383;SDS011;22418;51.210;6.976;2023-06-14T05:18:38;9.73;;;4.90;;
36383;SDS011;22418;51.210;6.976;2023-06-14T05:21:10;8.57;;;4.22;;
36383;SDS011;22418;51.210;6.976;2023-06-14T05:23:41;8.00;;;4.65;;
36383;SDS011;22418;51.210;6.976;2023-06-14T05:26:11;9.67;;;4.33;;
36383;SDS011;22418;51.210;6.976;2023-06-14T05:28:42;10.93;;;4.50;;
36383;SDS011;22418;51.210;6.976;2023-06-14T05:31:13;16.50;;;4.83;;
36383;SDS011;22418;51.210;6.976;2023-06-14T05:33:43;12.93;;;4.63;;
36383;SDS011;22418;51.210;6.976;2023-06-14T05:36:14;8.10;;;4.77;;
36383;SDS011;22418;51.210;6.976;2023-06-14T05:38:45;9.97;;;4.27;;
36383;SDS011;22418;51.210;6.976;2023-06-14T05:41:15;9.98;;;4.50;;
36383;SDS011;22418;51.210;6.976;2023-06-14T05:43:46;21.42;;;4.88;;
36383;SDS011;22418;51.210;6.976;2023-06-14T05:46:16;11.13;;;4.40;;
36383;SDS011;22418;51.210;6.976;2023-06-14T05:48:52;13.18;;;4.63;;
36383;SDS011;22418;51.210;6.976;2023-06-14T05:51:23;13.73;;;4.35;;
36383;SDS011;22418;51.210;6.976;2023-06-14T05:53:55;13.10;;;4.45;;
36383;SDS011;22418;51.210;6.976;2023-06-14T05:56:26;12.68;;;4.75;;
36383;SDS011;22418;51.210;6.976;2023-06-14T05:58:56;12.98;;;4.25;;
36383;SDS011;22418;51.210;6.976;2023-06-14T06:01:27;14.07;;;4.43;;
36383;SDS011;22418;51.210;6.976;2023-06-14T06:06:28;10.07;;;4.00;;
36383;SDS011;22418;51.210;6.976;2023-06-14T06:08:59;10.27;;;4.28;;
36383;SDS011;22418;51.210;6.976;2023-06-14T06:11:30;10.48;;;4.40;;
36383;SDS011;22418;51.210;6.976;2023-06-14T06:14:00;10.95;;;4.40;;
36383;SDS011;22418;51.210;6.976;2023-06-14T06:16:31;10.23;;;4.25;;
36383;SDS011;22418;51.210;6.976;2023-06-14T06:19:02;13.02;;;4.25;;
36383;SDS011;22418;51.210;6.976;2023-06-14T06:21:33;8.30;;;4.15;;
36383;SDS011;22418;51.210;6.976;2023-06-14T06:24:04;9.98;;;3.85;;
36383;SDS011;22418;51.210;6.976;2023-06-14T06:26:35;5.78;;;3.13;;
36383;SDS011;22418;51.210;6.976;2023-06-14T06:29:06;10.88;;;3.38;;
36383;SDS011;22418;51.210;6.976;2023-06-14T06:31:37;12.48;;;3.33;;
36383;SDS011;22418;51.210;6.976;2023-06-14T06:34:07;6.45;;;3.40;;
36383;SDS011;22418;51.210;6.976;2023-06-14T06:36:38;6.15;;;3.00;;
36383;SDS011;22418;51.210;6.976;2023-06-14T06:39:08;5.10;;;2.88;;
36383;SDS011;22418;51.210;6.976;2023-06-14T06:41:40;8.80;;;3.17;;
36383;SDS011;22418;51.210;6.976;2023-06-14T06:44:10;7.22;;;3.38;;
36383;SDS011;22418;51.210;6.976;2023-06-14T06:46:41;5.47;;;2.72;;
36383;SDS011;22418;51.210;6.976;2023-06-14T06:49:12;9.43;;;2.60;;
36383;SDS011;22418;51.210;6.976;2023-06-14T06:51:43;3.90;;;2.63;;
36383;SDS011;22418;51.210;6.976;2023-06-14T06:54:28;3.92;;;2.47;;
36383;SDS011;22418;51.210;6.976;2023-06-14T06:56:59;8.15;;;2.47;;
36383;SDS011;22418;51.210;6.976;2023-06-14T06:59:31;7.47;;;2.60;;
36383;SDS011;22418;51.210;6.976;2023-06-14T07:02:03;4.28;;;2.00;;
36383;SDS011;22418;51.210;6.976;2023-06-14T07:04:33;5.50;;;2.20;;
36383;SDS011;22418;51.210;6.976;2023-06-14T07:07:04;3.33;;;2.20;;
36383;SDS011;22418;51.210;6.976;2023-06-14T07:09:35;7.07;;;1.90;;
36383;SDS011;22418;51.210;6.976;2023-06-14T07:12:06;3.65;;;2.10;;
36383;SDS011;22418;51.210;6.976;2023-06-14T07:14:37;4.80;;;2.15;;
36383;SDS011;22418;51.210;6.976;2023-06-14T07:19:39;5.50;;;2.30;;
36383;SDS011;22418;51.210;6.976;2023-06-14T07:24:40;8.77;;;2.37;;
36383;SDS011;22418;51.210;6.976;2023-06-14T07:27:12;3.85;;;2.10;;
36383;SDS011;22418;51.210;6.976;2023-06-14T07:32:13;8.63;;;2.40;;
36383;SDS011;22418;51.210;6.976;2023-06-14T07:34:44;5.40;;;2.65;;
36383;SDS011;22418;51.210;6.976;2023-06-14T07:37:14;3.20;;;2.10;;
36383;SDS011;22418;51.210;6.976;2023-06-14T07:39:45;6.60;;;2.80;;
36383;SDS011;22418;51.210;6.976;2023-06-14T07:42:15;6.78;;;2.42;;
36383;SDS011;22418;51.210;6.976;2023-06-14T07:44:46;6.75;;;2.45;;
36383;SDS011;22418;51.210;6.976;2023-06-14T07:47:17;8.48;;;2.47;;
36383;SDS011;22418;51.210;6.976;2023-06-14T07:49:47;14.23;;;3.15;;
36383;SDS011;22418;51.210;6.976;2023-06-14T07:52:18;14.17;;;3.40;;
36383;SDS011;22418;51.210;6.976;2023-06-14T07:54:48;14.43;;;3.20;;
36383;SDS011;22418;51.210;6.976;2023-06-14T07:57:19;8.43;;;2.72;;
36383;SDS011;22418;51.210;6.976;2023-06-14T07:59:50;7.65;;;2.45;;
36383;SDS011;22418;51.210;6.976;2023-06-14T08:02:21;28.83;;;3.85;;
36383;SDS011;22418;51.210;6.976;2023-06-14T08:04:51;24.10;;;3.83;;
36383;SDS011;22418;51.210;6.976;2023-06-14T08:07:22;16.02;;;2.70;;
36383;SDS011;22418;51.210;6.976;2023-06-14T08:09:53;4.47;;;1.97;;
36383;SDS011;22418;51.210;6.976;2023-06-14T08:12:23;3.27;;;1.90;;
36383;SDS011;22418;51.210;6.976;2023-06-14T08:14:54;7.27;;;2.33;;
36383;SDS011;22418;51.210;6.976;2023-06-14T08:17:25;5.40;;;2.25;;
36383;SDS011;22418;51.210;6.976;2023-06-14T08:19:56;11.18;;;2.70;;
36383;SDS011;22418;51.210;6.976;2023-06-14T08:22:27;8.55;;;2.30;;
36383;SDS011;22418;51.210;6.976;2023-06-14T08:25:01;18.95;;;3.13;;
36383;SDS011;22418;51.210;6.976;2023-06-14T08:27:33;6.15;;;2.80;;
36383;SDS011;22418;51.210;6.976;2023-06-14T08:30:03;7.80;;;2.37;;
36383;SDS011;22418;51.210;6.976;2023-06-14T08:32:34;7.43;;;2.25;;
36383;SDS011;22418;51.210;6.976;2023-06-14T08:35:05;6.87;;;2.17;;
36383;SDS011;22418;51.210;6.976;2023-06-14T08:37:40;4.20;;;2.17;;
36383;SDS011;22418;51.210;6.976;2023-06-14T08:40:17;8.30;;;2.30;;
36383;SDS011;22418;51.210;6.976;2023-06-14T08:42:52;9.88;;;1.98;;
36383;SDS011;22418;51.210;6.976;2023-06-14T08:45:24;6.82;;;2.05;;
36383;SDS011;22418;51.210;6.976;2023-06-14T08:47:57;12.43;;;2.13;;
36383;SDS011;22418;51.210;6.976;2023-06-14T08:50:29;6.82;;;2.05;;
36383;SDS011;22418;51.210;6.976;2023-06-14T08:53:02;7.55;;;2.00;;
36383;SDS011;22418;51.210;6.976;2023-06-14T08:55:33;2.97;;;1.80;;
36383;SDS011;22418;51.210;6.976;2023-06-14T08:58:03;4.53;;;1.60;;
36383;SDS011;22418;51.210;6.976;2023-06-14T09:03:08;5.40;;;1.70;;
36383;SDS011;22418;51.210;6.976;2023-06-14T09:05:43;5.47;;;2.05;;
36383;SDS011;22418;51.210;6.976;2023-06-14T09:10:46;3.38;;;1.70;;
36383;SDS011;22418;51.210;6.976;2023-06-14T09:13:16;6.87;;;1.80;;
36383;SDS011;22418;51.210;6.976;2023-06-14T09:15:47;10.52;;;1.75;;
36383;SDS011;22418;51.210;6.976;2023-06-14T09:18:18;5.17;;;1.60;;
36383;SDS011;22418;51.210;6.976;2023-06-14T09:20:50;6.95;;;1.52;;
36383;SDS011;22418;51.210;6.976;2023-06-14T09:23:20;9.87;;;1.60;;
36383;SDS011;22418;51.210;6.976;2023-06-14T09:25:52;5.82;;;1.60;;
36383;SDS011;22418;51.210;6.976;2023-06-14T09:28:26;5.23;;;1.60;;
36383;SDS011;22418;51.210;6.976;2023-06-14T09:30:57;3.03;;;1.42;;
36383;SDS011;22418;51.210;6.976;2023-06-14T09:33:28;6.03;;;1.50;;
36383;SDS011;22418;51.210;6.976;2023-06-14T09:35:58;6.47;;;1.50;;
36383;SDS011;22418;51.210;6.976;2023-06-14T09:38:29;6.13;;;2.20;;
36383;SDS011;22418;51.210;6.976;2023-06-14T09:41:00;2.47;;;1.70;;
36383;SDS011;22418;51.210;6.976;2023-06-14T09:43:34;6.13;;;2.10;;
36383;SDS011;22418;51.210;6.976;2023-06-14T09:46:04;7.43;;;1.93;;
36383;SDS011;22418;51.210;6.976;2023-06-14T09:48:36;4.78;;;2.17;;
36383;SDS011;22418;51.210;6.976;2023-06-14T09:51:06;3.05;;;1.80;;
36383;SDS011;22418;51.210;6.976;2023-06-14T09:56:10;4.40;;;2.15;;
36383;SDS011;22418;51.210;6.976;2023-06-14T09:58:41;5.53;;;1.70;;
36383;SDS011;22418;51.210;6.976;2023-06-14T10:01:12;4.13;;;1.80;;
36383;SDS011;22418;51.210;6.976;2023-06-14T10:03:44;6.53;;;1.77;;
36383;SDS011;22418;51.210;6.976;2023-06-14T10:06:16;12.52;;;2.13;;
36383;SDS011;22418;51.210;6.976;2023-06-14T10:08:47;7.85;;;1.95;;
36383;SDS011;22418;51.210;6.976;2023-06-14T10:11:19;3.88;;;2.00;;
36383;SDS011;22418;51.210;6.976;2023-06-14T10:13:50;6.70;;;2.28;;
36383;SDS011;22418;51.210;6.976;2023-06-14T10:16:28;3.75;;;1.90;;
36383;SDS011;22418;51.210;6.976;2023-06-14T10:24:33;3.10;;;1.80;;
36383;SDS011;22418;51.210;6.976;2023-06-14T10:27:09;5.45;;;2.25;;
36383;SDS011;22418;51.210;6.976;2023-06-14T10:32:23;3.17;;;2.03;;
36383;SDS011;22418;51.210;6.976;2023-06-14T10:34:56;6.47;;;1.98;;
36383;SDS011;22418;51.210;6.976;2023-06-14T10:37:46;6.45;;;1.70;;
36383;SDS011;22418;51.210;6.976;2023-06-14T10:40:30;11.85;;;2.00;;
36383;SDS011;22418;51.210;6.976;2023-06-14T10:43:01;8.05;;;2.90;;
36383;SDS011;22418;51.210;6.976;2023-06-14T10:48:44;6.10;;;2.40;;
36383;SDS011;22418;51.210;6.976;2023-06-14T10:51:18;7.72;;;2.10;;
36383;SDS011;22418;51.210;6.976;2023-06-14T10:53:53;6.45;;;2.00;;
36383;SDS011;22418;51.210;6.976;2023-06-14T10:56:27;14.13;;;2.20;;
36383;SDS011;22418;51.210;6.976;2023-06-14T10:58:58;6.53;;;2.10;;
36383;SDS011;22418;51.210;6.976;2023-06-14T11:04:07;2.88;;;1.92;;
36383;SDS011;22418;51.210;6.976;2023-06-14T11:12:21;4.88;;;2.05;;
36383;SDS011;22418;51.210;6.976;2023-06-14T11:14:52;3.38;;;1.92;;
36383;SDS011;22418;51.210;6.976;2023-06-14T11:17:23;2.70;;;1.70;;
36383;SDS011;22418;51.210;6.976;2023-06-14T11:22:44;6.15;;;2.33;;
36383;SDS011;22418;51.210;6.976;2023-06-14T11:25:14;7.38;;;1.73;;
36383;SDS011;22418;51.210;6.976;2023-06-14T11:27:45;5.57;;;1.50;;
36383;SDS011;22418;51.210;6.976;2023-06-14T11:30:16;9.03;;;1.90;;
36383;SDS011;22418;51.210;6.976;2023-06-14T11:32:48;5.50;;;1.80;;
36383;SDS011;22418;51.210;6.976;2023-06-14T11:37:53;3.20;;;1.60;;
36383;SDS011;22418;51.210;6.976;2023-06-14T11:40:26;6.03;;;1.75;;
36383;SDS011;22418;51.210;6.976;2023-06-14T11:43:01;4.88;;;1.50;;
36383;SDS011;22418;51.210;6.976;2023-06-14T11:45:32;9.65;;;2.05;;
36383;SDS011;22418;51.210;6.976;2023-06-14T11:48:02;11.07;;;1.90;;
36383;SDS011;22418;51.210;6.976;2023-06-14T11:50:33;2.83;;;1.60;;
36383;SDS011;22418;51.210;6.976;2023-06-14T11:53:08;6.35;;;1.70;;
36383;SDS011;22418;51.210;6.976;2023-06-14T11:55:40;4.97;;;1.58;;
36383;SDS011;22418;51.210;6.976;2023-06-14T11:58:11;7.28;;;2.13;;
36383;SDS011;22418;51.210;6.976;2023-06-14T12:00:44;4.00;;;1.70;;
36383;SDS011;22418;51.210;6.976;2023-06-14T12:03:22;7.90;;;1.70;;
36383;SDS011;22418;51.210;6.976;2023-06-14T12:06:01;5.28;;;1.58;;
36383;SDS011;22418;51.210;6.976;2023-06-14T12:08:37;8.32;;;1.42;;
36383;SDS011;22418;51.210;6.976;2023-06-14T12:11:13;7.78;;;1.42;;
36383;SDS011;22418;51.210;6.976;2023-06-14T12:13:43;6.75;;;1.80;;
36383;SDS011;22418;51.210;6.976;2023-06-14T12:16:14;5.60;;;1.50;;
36383;SDS011;22418;51.210;6.976;2023-06-14T12:18:47;8.60;;;1.27;;
36383;SDS011;22418;51.210;6.976;2023-06-14T12:21:18;5.43;;;1.40;;
36383;SDS011;22418;51.210;6.976;2023-06-14T12:23:53;5.82;;;1.35;;
36383;SDS011;22418;51.210;6.976;2023-06-14T12:26:24;7.32;;;1.70;;
36383;SDS011;22418;51.210;6.976;2023-06-14T12:28:55;7.72;;;1.50;;
36383;SDS011;22418;51.210;6.976;2023-06-14T12:31:26;3.58;;;1.55;;
36383;SDS011;22418;51.210;6.976;2023-06-14T12:33:57;6.32;;;1.70;;
36383;SDS011;22418;51.210;6.976;2023-06-14T12:36:28;4.03;;;1.63;;
36383;SDS011;22418;51.210;6.976;2023-06-14T12:38:59;5.15;;;1.80;;
36383;SDS011;22418;51.210;6.976;2023-06-14T12:41:30;7.18;;;1.50;;
36383;SDS011;22418;51.210;6.976;2023-06-14T12:44:00;5.60;;;1.60;;
36383;SDS011;22418;51.210;6.976;2023-06-14T12:46:34;7.13;;;1.65;;
36383;SDS011;22418;51.210;6.976;2023-06-14T12:49:10;3.85;;;1.50;;
36383;SDS011;22418;51.210;6.976;2023-06-14T12:51:41;5.95;;;1.58;;
36383;SDS011;22418;51.210;6.976;2023-06-14T12:54:11;4.03;;;1.60;;
36383;SDS011;22418;51.210;6.976;2023-06-14T12:56:42;4.57;;;2.33;;
36383;SDS011;22418;51.210;6.976;2023-06-14T12:59:14;1.98;;;1.42;;
36383;SDS011;22418;51.210;6.976;2023-06-14T13:01:45;6.90;;;1.60;;
36383;SDS011;22418;51.210;6.976;2023-06-14T13:04:17;4.25;;;1.50;;
36383;SDS011;22418;51.210;6.976;2023-06-14T13:06:48;6.47;;;1.63;;
36383;SDS011;22418;51.210;6.976;2023-06-14T13:09:18;6.50;;;2.30;;
36383;SDS011;22418;51.210;6.976;2023-06-14T13:11:49;3.57;;;1.97;;
36383;SDS011;22418;51.210;6.976;2023-06-14T13:14:19;5.87;;;1.90;;
36383;SDS011;22418;51.210;6.976;2023-06-14T13:16:50;7.43;;;1.93;;
36383;SDS011;22418;51.210;6.976;2023-06-14T13:19:21;3.33;;;1.70;;
36383;SDS011;22418;51.210;6.976;2023-06-14T13:21:52;7.10;;;1.95;;
36383;SDS011;22418;51.210;6.976;2023-06-14T13:24:22;9.50;;;1.97;;
36383;SDS011;22418;51.210;6.976;2023-06-14T13:26:53;11.17;;;3.23;;
36383;SDS011;22418;51.210;6.976;2023-06-14T13:29:24;8.70;;;2.30;;
36383;SDS011;22418;51.210;6.976;2023-06-14T13:31:55;9.13;;;2.35;;
36383;SDS011;22418;51.210;6.976;2023-06-14T13:34:25;5.10;;;2.23;;
36383;SDS011;22418;51.210;6.976;2023-06-14T13:36:56;3.57;;;1.83;;
36383;SDS011;22418;51.210;6.976;2023-06-14T13:39:28;7.57;;;2.25;;
36383;SDS011;22418;51.210;6.976;2023-06-14T13:41:59;5.50;;;2.20;;
36383;SDS011;22418;51.210;6.976;2023-06-14T13:44:29;6.70;;;2.10;;
36383;SDS011;22418;51.210;6.976;2023-06-14T13:47:00;4.93;;;1.93;;
36383;SDS011;22418;51.210;6.976;2023-06-14T13:49:30;6.10;;;1.87;;
36383;SDS011;22418;51.210;6.976;2023-06-14T13:52:01;7.07;;;2.10;;
36383;SDS011;22418;51.210;6.976;2023-06-14T13:57:03;4.40;;;1.73;;
36383;SDS011;22418;51.210;6.976;2023-06-14T13:59:34;4.28;;;1.90;;
36383;SDS011;22418;51.210;6.976;2023-06-14T14:02:05;2.78;;;2.00;;
36383;SDS011;22418;51.210;6.976;2023-06-14T14:04:37;7.03;;;1.63;;
36383;SDS011;22418;51.210;6.976;2023-06-14T14:07:09;7.05;;;2.17;;
36383;SDS011;22418;51.210;6.976;2023-06-14T14:09:39;7.00;;;1.93;;
36383;SDS011;22418;51.210;6.976;2023-06-14T14:12:10;6.15;;;1.90;;
36383;SDS011;22418;51.210;6.976;2023-06-14T14:14:41;6.70;;;2.00;;
36383;SDS011;22418;51.210;6.976;2023-06-14T14:17:12;4.72;;;2.10;;
36383;SDS011;22418;51.210;6.976;2023-06-14T14:19:43;4.82;;;1.90;;
36383;SDS011;22418;51.210;6.976;2023-06-14T14:22:13;8.57;;;2.20;;
36383;SDS011;22418;51.210;6.976;2023-06-14T14:24:44;3.63;;;1.97;;
36383;SDS011;22418;51.210;6.976;2023-06-14T14:27:14;4.73;;;1.80;;
36383;SDS011;22418;51.210;6.976;2023-06-14T14:29:45;6.53;;;1.80;;
36383;SDS011;22418;51.210;6.976;2023-06-14T14:32:15;5.90;;;2.20;;
36383;SDS011;22418;51.210;6.976;2023-06-14T14:34:46;5.43;;;2.22;;
36383;SDS011;22418;51.210;6.976;2023-06-14T14:37:17;3.80;;;2.00;;
36383;SDS011;22418;51.210;6.976;2023-06-14T14:39:47;4.07;;;2.20;;
36383;SDS011;22418;51.210;6.976;2023-06-14T14:42:18;3.40;;;2.33;;
36383;SDS011;22418;51.210;6.976;2023-06-14T14:47:20;5.13;;;2.00;;
36383;SDS011;22418;51.210;6.976;2023-06-14T14:49:50;9.17;;;1.80;;
36383;SDS011;22418;51.210;6.976;2023-06-14T14:52:21;9.73;;;3.53;;
36383;SDS011;22418;51.210;6.976;2023-06-14T14:54:51;6.93;;;2.50;;
36383;SDS011;22418;51.210;6.976;2023-06-14T14:59:53;6.13;;;2.10;;
36383;SDS011;22418;51.210;6.976;2023-06-14T15:02:24;4.93;;;2.13;;
36383;SDS011;22418;51.210;6.976;2023-06-14T15:04:54;4.33;;;1.90;;
36383;SDS011;22418;51.210;6.976;2023-06-14T15:07:27;5.28;;;2.17;;
36383;SDS011;22418;51.210;6.976;2023-06-14T15:09:58;5.05;;;1.90;;
36383;SDS011;22418;51.210;6.976;2023-06-14T15:12:28;4.73;;;1.90;;
36383;SDS011;22418;51.210;6.976;2023-06-14T15:14:59;5.27;;;2.10;;
36383;SDS011;22418;51.210;6.976;2023-06-14T15:17:30;6.73;;;2.17;;
36383;SDS011;22418;51.210;6.976;2023-06-14T15:20:00;5.17;;;1.57;;
36383;SDS011;22418;51.210;6.976;2023-06-14T15:22:31;3.13;;;1.85;;
36383;SDS011;22418;51.210;6.976;2023-06-14T15:25:04;3.43;;;2.10;;
36383;SDS011;22418;51.210;6.976;2023-06-14T15:27:37;3.72;;;2.30;;
36383;SDS011;22418;51.210;6.976;2023-06-14T15:30:08;6.10;;;2.17;;
36383;SDS011;22418;51.210;6.976;2023-06-14T15:32:39;5.35;;;2.15;;
36383;SDS011;22418;51.210;6.976;2023-06-14T15:35:09;2.20;;;1.63;;
36383;SDS011;22418;51.210;6.976;2023-06-14T15:37:40;5.80;;;2.03;;
36383;SDS011;22418;51.210;6.976;2023-06-14T15:40:10;4.00;;;1.97;;
36383;SDS011;22418;51.210;6.976;2023-06-14T15:42:41;8.27;;;1.90;;
36383;SDS011;22418;51.210;6.976;2023-06-14T15:45:12;3.23;;;1.83;;
36383;SDS011;22418;51.210;6.976;2023-06-14T15:47:42;5.13;;;1.80;;
36383;SDS011;22418;51.210;6.976;2023-06-14T15:50:13;6.83;;;1.80;;
36383;SDS011;22418;51.210;6.976;2023-06-14T15:52:43;6.37;;;1.90;;
36383;SDS011;22418;51.210;6.976;2023-06-14T15:55:14;5.40;;;1.83;;
36383;SDS011;22418;51.210;6.976;2023-06-14T15:57:45;3.23;;;2.03;;
36383;SDS011;22418;51.210;6.976;2023-06-14T16:00:15;3.47;;;2.10;;
36383;SDS011;22418;51.210;6.976;2023-06-14T16:02:46;4.10;;;2.20;;
36383;SDS011;22418;51.210;6.976;2023-06-14T16:05:17;2.47;;;1.70;;
36383;SDS011;22418;51.210;6.976;2023-06-14T16:07:47;3.53;;;1.75;;
36383;SDS011;22418;51.210;6.976;2023-06-14T16:10:18;4.97;;;1.83;;
36383;SDS011;22418;51.210;6.976;2023-06-14T16:12:49;11.77;;;1.97;;
36383;SDS011;22418;51.210;6.976;2023-06-14T16:15:19;7.80;;;2.10;;
36383;SDS011;22418;51.210;6.976;2023-06-14T16:17:50;7.67;;;2.27;;
36383;SDS011;22418;51.210;6.976;2023-06-14T16:20:20;4.93;;;2.05;;